Poesville, Texas
Current Conditions -  °F | °C
As of 8:15 AM on Sunday 21 Dec 2014 (Local Time) from KCPT Reporting Station
Haze Haze  
Wind Chill: 43°   Ceiling: 1400
Heat Index: 46°   Visibility: 4mi
Dew Point: 46°   Wind: 7mph
Humidity: 100%   Direction: 150°SSE
Pressure: 30.1"   Gusts: NA
Location:  32.0481°N, 97.6449°W
Report Text: KCPT 211415Z AUTO 15006KT 4SM BR FEW006 OVC014 08/08 A3010 RMK AO2
Loading
Personal Weather Stations






























Interactive Weather Map New forecast layout! Learn more

10-Day Weather Forecast

Advertisements
Track Severe Weather on mobile